createdAt,value
2022-07-27T00:07:57.169Z,19.50
2022-07-27T00:18:04.567Z,25.50
2022-07-27T00:28:11.622Z,22.90
2022-07-27T00:38:18.707Z,18.80
2022-07-27T00:48:27.170Z,21.20
2022-07-27T01:08:42.648Z,17.60
2022-07-27T01:18:48.787Z,20.30
2022-07-27T01:29:00.376Z,17.60
2022-07-27T01:39:08.316Z,15.30
2022-07-27T01:49:16.476Z,22.10
2022-07-27T01:59:24.015Z,18.70
2022-07-27T02:09:31.247Z,16.20
2022-07-27T02:19:38.542Z,14.50
2022-07-27T02:29:45.885Z,13.80
2022-07-27T02:39:53.864Z,13.20
2022-07-27T02:50:00.044Z,8.60
2022-07-27T03:00:09.774Z,8.20
2022-07-27T03:10:17.171Z,12.50
2022-07-27T03:20:24.551Z,10.20
2022-07-27T03:30:32.237Z,13.60
2022-07-27T03:40:39.894Z,8.30
2022-07-27T03:50:47.228Z,12.80
2022-07-27T04:00:54.507Z,10.00
2022-07-27T04:11:01.866Z,10.60
2022-07-27T04:21:09.089Z,9.90
2022-07-27T04:31:17.383Z,9.00
2022-07-27T04:41:30.169Z,7.30
2022-07-27T04:51:37.797Z,11.10
2022-07-27T05:01:45.194Z,12.30
2022-07-27T05:11:52.502Z,8.00
2022-07-27T05:22:00.193Z,6.30
2022-07-27T05:32:08.154Z,4.40
2022-07-27T05:42:15.905Z,7.90
2022-07-27T05:52:23.046Z,5.90
2022-07-27T06:02:31.830Z,7.70
2022-07-27T06:12:39.807Z,8.30
2022-07-27T06:22:48.400Z,10.00
2022-07-27T06:32:55.550Z,4.20
2022-07-27T06:43:04.018Z,4.40
2022-07-27T06:53:12.109Z,7.00
2022-07-27T07:03:19.265Z,4.90
2022-07-27T07:13:26.520Z,3.00
2022-07-27T07:23:33.750Z,5.00
2022-07-27T07:33:40.919Z,6.90
2022-07-27T07:43:48.340Z,8.80
2022-07-27T07:53:55.496Z,5.70
2022-07-27T08:04:02.937Z,3.10
2022-07-27T08:14:11.435Z,3.00
2022-07-27T08:24:18.606Z,5.90
2022-07-27T08:34:25.734Z,1.90
2022-07-27T08:44:33.204Z,3.20
2022-07-27T08:54:43.295Z,5.70
2022-07-27T09:04:50.981Z,5.20
2022-07-27T09:15:05.781Z,4.80
2022-07-27T09:25:14.179Z,1.90
2022-07-27T09:35:24.110Z,2.00
2022-07-27T09:45:32.764Z,2.50
2022-07-27T09:55:41.385Z,4.90
2022-07-27T10:05:47.638Z,2.80
2022-07-27T10:15:54.241Z,3.20
2022-07-27T10:26:28.403Z,1.50
2022-07-27T10:36:52.797Z,2.60
2022-07-27T10:47:01.926Z,3.10
2022-07-27T10:57:09.446Z,3.60
2022-07-27T11:07:29.699Z,2.70
2022-07-27T11:17:59.387Z,5.70
2022-07-27T11:28:07.541Z,3.90
2022-07-27T11:38:14.892Z,2.50
2022-07-27T11:48:22.262Z,1.80
2022-07-27T11:58:29.513Z,3.20
2022-07-27T12:08:37.222Z,2.10
2022-07-27T12:18:47.808Z,3.80
2022-07-27T12:29:06.575Z,4.20
2022-07-27T12:39:26.874Z,3.80
2022-07-27T12:49:34.777Z,3.10
2022-07-27T12:59:42.047Z,4.10
2022-07-27T13:20:12.663Z,7.90
2022-07-27T13:30:21.276Z,5.70
2022-07-27T13:40:28.455Z,3.00
2022-07-27T13:50:35.657Z,4.40
2022-07-27T14:00:43.676Z,2.50
2022-07-27T14:20:57.303Z,9.50
2022-07-27T14:31:06.651Z,5.30
2022-07-27T14:41:14.912Z,3.80
2022-07-27T14:51:22.224Z,3.80
2022-07-27T15:01:29.708Z,3.50
2022-07-27T15:11:37.971Z,4.60
2022-07-27T15:21:47.475Z,5.60
2022-07-27T15:31:54.854Z,6.00
2022-07-27T15:42:02.290Z,4.00
2022-07-27T15:52:08.785Z,6.70
2022-07-27T16:02:16.173Z,4.10
2022-07-27T16:12:33.820Z,3.70
2022-07-27T16:22:45.168Z,3.70
2022-07-27T16:32:52.438Z,5.70
2022-07-27T16:42:58.714Z,8.20
2022-07-27T16:53:06.000Z,5.00
2022-07-27T17:03:13.500Z,4.00
2022-07-27T17:13:21.105Z,4.50
2022-07-27T17:23:33.690Z,4.50
2022-07-27T17:33:40.388Z,9.20
2022-07-27T17:43:47.693Z,7.40
2022-07-27T17:53:54.870Z,7.30
2022-07-27T18:04:02.382Z,6.30
2022-07-27T18:14:09.702Z,11.60
2022-07-27T18:24:17.969Z,5.40
2022-07-27T18:34:24.735Z,6.40
2022-07-27T18:44:35.288Z,7.30
2022-07-27T18:54:44.769Z,10.70
2022-07-27T19:04:50.913Z,9.10
2022-07-27T19:14:58.173Z,9.90
2022-07-27T19:25:08.374Z,11.60
2022-07-27T19:35:15.928Z,2.70
2022-07-27T20:05:34.190Z,6.20
2022-07-27T20:15:40.536Z,8.90
2022-07-27T20:25:46.616Z,4.70
2022-07-27T20:35:53.767Z,5.40
2022-07-27T20:46:00.953Z,5.10
2022-07-27T20:56:08.153Z,7.10
2022-07-27T21:06:14.447Z,6.20
2022-07-27T21:16:21.898Z,9.30
2022-07-27T21:26:29.100Z,8.30
2022-07-27T21:36:38.291Z,13.00
2022-07-27T21:46:45.442Z,7.00
2022-07-27T21:56:51.872Z,8.30
2022-07-27T22:06:59.111Z,10.70
2022-07-27T22:17:06.247Z,6.10
2022-07-27T22:27:12.480Z,6.20
2022-07-27T22:37:19.720Z,7.00
2022-07-27T22:47:27.290Z,6.10
2022-07-27T22:57:34.631Z,7.80
2022-07-27T23:07:42.150Z,6.40
2022-07-27T23:17:49.840Z,6.60
2022-07-27T23:27:57.548Z,8.40
2022-07-27T23:38:04.629Z,7.90
2022-07-27T23:48:11.902Z,6.90
2022-07-27T23:58:18.977Z,5.90
